Time;durP1;ratioP1;P1;durP2;ratioP2;P2;SDS_P1;SDS_P2;PMS_P1;PMS_P2;Temp;Humidity;BMP_temperature;BMP_pressure;BME280_temperature;BME280_humidity;BME280_pressure;Samples;Min_cycle;Max_cycle;Signal;HPM_P1;HPM_P2
2022/07/28 00:01:58;;;;;;;3.30;2.00;;;;;;;9.75;72.82;98953.19;4201492;28;20440;-70
2022/07/28 00:03:59;;;;;;;5.38;2.03;;;;;;;9.74;73.45;98943.31;4201077;28;20071;-70
2022/07/28 00:06:00;;;;;;;3.03;2.00;;;;;;;9.74;72.80;98941.34;4200396;28;20047;-70
2022/07/28 00:08:00;;;;;;;6.47;2.47;;;;;;;9.72;73.21;98940.91;4202529;28;20480;-70
2022/07/28 00:10:00;;;;;;;2.90;2.08;;;;;;;9.72;73.56;98938.16;4200693;28;20361;-70
2022/07/28 00:12:01;;;;;;;5.75;2.30;;;;;;;9.73;73.54;98950.78;4200285;28;20352;-70
2022/07/28 00:14:01;;;;;;;4.72;2.00;;;;;;;9.65;73.41;98934.41;4200638;28;20071;-70
2022/07/28 00:16:02;;;;;;;6.72;2.15;;;;;;;9.63;73.46;98937.53;4200996;28;20730;-71
2022/07/28 00:18:02;;;;;;;7.82;2.50;;;;;;;9.61;73.26;98936.31;4201733;28;20030;-70
2022/07/28 00:20:04;;;;;;;5.82;2.03;;;;;;;9.56;73.63;98935.41;4202371;28;20363;-70
2022/07/28 00:22:06;;;;;;;3.85;1.85;;;;;;;9.53;73.96;98938.13;4200307;28;20037;-70
2022/07/28 00:24:06;;;;;;;4.28;2.20;;;;;;;9.47;73.66;98934.81;4201890;28;20114;-70
2022/07/28 00:26:08;;;;;;;9.48;2.45;;;;;;;9.47;73.53;98934.81;4200477;28;20396;-70
2022/07/28 00:28:08;;;;;;;3.85;2.13;;;;;;;9.43;73.56;98935.88;4202349;28;20477;-70
2022/07/28 00:30:09;;;;;;;5.45;2.22;;;;;;;9.38;73.28;98939.75;4200655;28;20043;-70
2022/07/28 00:32:10;;;;;;;6.25;2.38;;;;;;;9.27;74.04;98931.22;4202294;28;20535;-70
2022/07/28 00:34:10;;;;;;;4.65;2.13;;;;;;;9.21;74.24;98935.41;4198835;28;20460;-70
2022/07/28 00:36:12;;;;;;;4.85;2.40;;;;;;;9.17;74.51;98936.47;4199611;28;20445;-70
2022/07/28 00:38:12;;;;;;;9.18;2.60;;;;;;;9.15;74.41;98934.06;4202571;28;20086;-70
2022/07/28 00:40:12;;;;;;;6.72;2.65;;;;;;;9.18;73.32;98932.53;4204515;28;20028;-70
2022/07/28 00:42:19;;;;;;;7.43;2.20;;;;;;;9.20;73.02;98928.28;4202791;28;20036;-70
2022/07/28 00:44:20;;;;;;;3.28;1.77;;;;;;;9.16;73.76;98934.84;4203303;28;20526;-70
2022/07/28 00:46:22;;;;;;;5.20;2.22;;;;;;;9.13;73.29;98933.63;4205290;28;20109;-70
2022/07/28 00:48:22;;;;;;;6.20;2.10;;;;;;;9.11;73.17;98926.88;4204407;28;20458;-70
2022/07/28 00:50:23;;;;;;;5.88;2.60;;;;;;;9.06;72.96;98925.16;4204970;28;20127;-70
2022/07/28 00:52:24;;;;;;;3.72;1.90;;;;;;;9.05;73.91;98923.56;4205600;28;20064;-70
2022/07/28 00:54:24;;;;;;;4.68;1.85;;;;;;;9.01;74.02;98917.13;4204172;28;20131;-70
2022/07/28 00:56:25;;;;;;;5.50;2.28;;;;;;;8.98;74.62;98915.91;4194250;28;20216;-70
2022/07/28 00:58:26;;;;;;;3.25;2.25;;;;;;;8.94;75.04;98909.50;4204651;28;20131;-70
2022/07/28 01:00:27;;;;;;;3.63;2.03;;;;;;;8.91;75.07;98907.44;4205371;28;20036;-70
2022/07/28 01:02:27;;;;;;;3.20;1.70;;;;;;;8.92;75.03;98908.25;4204212;28;20131;-70
2022/07/28 01:04:28;;;;;;;4.68;2.13;;;;;;;8.92;74.23;98908.25;4204019;28;20468;-70
2022/07/28 01:06:50;;;;;;;3.78;1.92;;;;;;;8.88;75.27;98908.16;4203647;28;20131;-70
2022/07/28 01:09:02;;;;;;;9.30;2.90;;;;;;;8.82;75.58;98904.06;4203565;28;20044;-70
2022/07/28 01:11:16;;;;;;;5.03;1.92;;;;;;;8.83;74.74;98913.13;4202523;28;20045;-70
2022/07/28 01:13:35;;;;;;;5.32;1.90;;;;;;;8.80;75.37;98911.09;4204153;28;20074;-70
2022/07/28 01:15:41;;;;;;;3.80;2.03;;;;;;;8.73;76.40;98906.19;4188210;28;20055;-70
2022/07/28 01:17:48;;;;;;;6.32;1.95;;;;;;;8.68;76.21;98915.53;4203761;28;20091;-70
2022/07/28 01:20:08;;;;;;;6.32;2.15;;;;;;;8.62;76.19;98914.22;4203080;28;20040;-70
2022/07/28 01:22:14;;;;;;;5.55;2.30;;;;;;;8.57;76.35;98913.66;4203839;28;20048;-70
2022/07/28 01:24:32;;;;;;;7.78;2.55;;;;;;;8.53;76.24;98921.84;4204718;28;20036;-70
2022/07/28 01:27:02;;;;;;;4.50;2.28;;;;;;;8.51;75.22;98921.38;4202307;28;20044;-70
2022/07/28 01:29:15;;;;;;;5.53;1.88;;;;;;;8.52;75.66;98922.97;4203452;28;20047;-70
2022/07/28 01:31:20;;;;;;;5.30;1.90;;;;;;;8.48;75.55;98922.09;4201816;28;20122;-70
2022/07/28 01:33:38;;;;;;;7.40;2.10;;;;;;;8.51;74.27;98923.34;4204361;28;20808;-70
2022/07/28 01:35:46;;;;;;;3.72;1.52;;;;;;;8.52;74.82;98922.19;4204063;28;20043;-70
2022/07/28 01:37:50;;;;;;;2.88;1.90;;;;;;;8.47;74.99;98916.94;4204839;28;20246;-70
2022/07/28 01:39:55;;;;;;;2.80;1.60;;;;;;;8.43;75.48;98925.09;4202513;28;20102;-70
2022/07/28 01:41:57;;;;;;;5.10;1.98;;;;;;;8.31;76.72;98925.16;4203696;28;20048;-70
2022/07/28 01:44:05;;;;;;;3.42;2.10;;;;;;;8.24;77.40;98922.19;4203990;28;20618;-70
2022/07/28 01:46:06;;;;;;;2.30;1.80;;;;;;;8.24;77.36;98920.22;4203040;28;20036;-70
2022/07/28 01:48:09;;;;;;;12.15;2.55;;;;;;;8.23;76.51;98921.38;4204067;28;20020;-70
2022/07/28 01:50:11;;;;;;;;;;;;;;;8.16;77.50;98922.00;4203312;28;20115;-70
2022/07/28 01:52:12;;;;;;;6.15;2.17;;;;;;;8.10;77.13;98919.81;4203212;28;19965;-70
2022/07/28 01:54:14;;;;;;;3.80;1.90;;;;;;;8.05;77.73;98914.59;4203839;28;20032;-70
2022/07/28 01:56:16;;;;;;;5.10;2.67;;;;;;;8.03;76.37;98922.41;4203273;28;20028;-70
2022/07/28 01:58:23;;;;;;;2.92;1.80;;;;;;;7.99;76.61;98908.50;4203426;28;20058;-70
2022/07/28 02:00:26;;;;;;;5.28;2.20;;;;;;;8.02;76.45;98909.75;4204421;28;20055;-70
2022/07/28 02:02:29;;;;;;;4.90;1.80;;;;;;;8.02;76.43;98907.00;4203802;28;20040;-70
2022/07/28 02:04:35;;;;;;;3.70;1.77;;;;;;;7.97;77.03;98908.06;4203207;28;20048;-70
2022/07/28 02:06:37;;;;;;;3.38;2.05;;;;;;;7.93;77.26;98907.16;4201722;28;20036;-70
2022/07/28 02:08:39;;;;;;;3.08;2.20;;;;;;;7.90;77.25;98905.09;4203890;28;20447;-70
2022/07/28 02:10:41;;;;;;;8.00;3.33;;;;;;;7.88;76.33;98905.47;4203248;28;20101;-70
2022/07/28 02:12:45;;;;;;;4.53;1.77;;;;;;;7.85;77.34;98911.66;4203765;28;20270;-70
2022/07/28 02:14:49;;;;;;;3.40;2.08;;;;;;;7.81;78.08;98907.22;4203771;28;20032;-70
2022/07/28 02:17:11;;;;;;;3.50;1.90;;;;;;;7.79;78.95;98904.81;4201836;28;20040;-70
2022/07/28 02:19:13;;;;;;;4.15;1.95;;;;;;;7.79;78.13;98896.53;4202067;28;20082;-70
2022/07/28 02:21:14;;;;;;;7.82;2.45;;;;;;;7.80;78.21;98898.13;4202299;28;20040;-70
2022/07/28 02:23:15;;;;;;;2.85;2.00;;;;;;;7.79;79.07;98890.22;4203309;28;20048;-70
2022/07/28 02:25:16;;;;;;;3.63;2.10;;;;;;;7.77;79.55;98893.31;4201119;28;20052;-70
2022/07/28 02:27:32;;;;;;;3.15;2.17;;;;;;;7.70;80.30;98890.38;4201988;28;20053;-70
2022/07/28 02:29:40;;;;;;;2.85;2.08;;;;;;;7.66;79.87;98894.97;4202070;28;20387;-70
2022/07/28 02:31:49;;;;;;;6.05;2.13;;;;;;;7.66;78.25;98892.22;4203051;28;20488;-70
2022/07/28 02:33:53;;;;;;;2.78;1.83;;;;;;;7.70;77.61;98895.88;4202997;28;20311;-70
2022/07/28 02:36:04;;;;;;;4.30;2.20;;;;;;;7.77;76.95;98892.50;4203342;28;20036;-70
2022/07/28 02:38:10;;;;;;;6.32;2.17;;;;;;;7.79;77.38;98896.53;4201618;28;20048;-70
2022/07/28 02:40:15;;;;;;;4.97;2.10;;;;;;;7.81;76.67;98904.44;4202224;28;20507;-70
2022/07/28 02:42:25;;;;;;;6.47;2.22;;;;;;;7.78;77.47;98900.44;4203089;28;20479;-70
2022/07/28 02:44:29;;;;;;;3.95;1.80;;;;;;;7.71;77.66;98905.75;4202955;28;20060;-70
2022/07/28 02:46:37;;;;;;;6.50;1.83;;;;;;;7.65;78.82;98909.09;4202201;28;20170;-70
2022/07/28 02:48:40;;;;;;;9.13;2.55;;;;;;;7.57;79.21;98908.06;4200671;28;20052;-70
2022/07/28 02:50:43;;;;;;;6.50;2.30;;;;;;;7.54;78.14;98904.06;4202554;28;20044;-70
2022/07/28 02:52:46;;;;;;;10.60;2.05;;;;;;;7.49;79.45;98909.81;4203351;28;20077;-70
2022/07/28 02:54:49;;;;;;;4.25;1.88;;;;;;;7.43;80.06;98916.69;4202957;28;20354;-70
2022/07/28 02:56:50;;;;;;;5.45;2.17;;;;;;;7.39;79.97;98917.75;4202987;28;20052;-70
2022/07/28 02:58:51;;;;;;;3.75;1.85;;;;;;;7.33;80.09;98911.66;4201786;28;20211;-70
2022/07/28 03:00:53;;;;;;;8.63;1.92;;;;;;;7.31;79.30;98911.22;4202476;28;20044;-69
2022/07/28 03:02:55;;;;;;;3.38;1.83;;;;;;;7.32;80.26;98929.31;4202563;28;20047;-70
2022/07/28 03:04:57;;;;;;;4.47;2.00;;;;;;;7.33;80.20;98911.66;4203194;28;20388;-70
2022/07/28 03:06:57;;;;;;;4.90;1.80;;;;;;;7.37;78.82;98925.56;4200227;28;20170;-70
2022/07/28 03:08:58;;;;;;;4.90;2.28;;;;;;;7.38;78.63;98925.19;4201994;28;20098;-70
2022/07/28 03:11:08;;;;;;;6.20;2.03;;;;;;;7.34;79.16;98921.53;4202853;28;20882;-70
2022/07/28 03:13:09;;;;;;;7.35;2.33;;;;;;;7.35;78.64;98916.81;4203006;28;20419;-69
2022/07/28 03:15:09;;;;;;;6.35;2.20;;;;;;;7.31;79.54;98919.47;4203047;28;20084;-70
2022/07/28 03:17:10;;;;;;;4.88;2.30;;;;;;;7.27;79.10;98926.78;4201662;28;20321;-70
2022/07/28 03:19:10;;;;;;;8.68;2.63;;;;;;;7.24;79.40;98925.53;4200914;28;20036;-69
2022/07/28 03:21:11;;;;;;;8.98;2.85;;;;;;;7.22;80.33;98927.84;4202776;28;20051;-69
2022/07/28 03:23:11;;;;;;;4.15;2.20;;;;;;;7.20;79.98;98926.56;4200283;28;20040;-70
2022/07/28 03:25:21;;;;;;;6.60;2.70;;;;;;;7.19;80.77;98930.47;4202059;28;20067;-70
2022/07/28 03:27:29;;;;;;;5.43;1.88;;;;;;;7.14;80.88;98922.47;4202595;28;20468;-70
2022/07/28 03:29:31;;;;;;;6.80;2.80;;;;;;;7.15;80.75;98938.63;4200736;28;20052;-70
2022/07/28 03:31:34;;;;;;;9.43;3.20;;;;;;;7.14;80.75;98933.47;4201907;28;20044;-69
2022/07/28 03:33:34;;;;;;;3.60;2.10;;;;;;;7.10;80.89;98925.09;4203189;28;20569;-69
2022/07/28 03:35:38;;;;;;;4.75;2.17;;;;;;;7.11;80.90;98928.63;4202007;28;20040;-69
2022/07/28 03:38:07;;;;;;;3.47;1.92;;;;;;;7.13;81.80;98931.88;4201422;28;20040;-69
2022/07/28 03:40:12;;;;;;;5.25;2.00;;;;;;;7.14;81.62;98927.97;4201054;28;20435;-69
2022/07/28 03:42:17;;;;;;;4.82;2.30;;;;;;;7.11;81.91;98928.63;4201674;28;20063;-70
2022/07/28 03:44:18;;;;;;;7.15;2.08;;;;;;;7.14;81.20;98933.47;4202095;28;20384;-70
2022/07/28 03:46:20;;;;;;;10.55;2.58;;;;;;;7.17;81.07;98930.81;4201478;28;20032;-69
2022/07/28 03:48:23;;;;;;;3.63;2.00;;;;;;;7.13;81.60;98929.91;4201699;28;20119;-70
2022/07/28 03:50:25;;;;;;;4.32;2.95;;;;;;;7.10;81.58;98922.31;4201916;28;20491;-70
2022/07/28 03:52:26;;;;;;;;;;;;;;;7.11;82.03;98925.88;4201637;28;20444;-70
2022/07/28 03:54:26;;;;;;;5.03;2.20;;;;;;;7.05;82.84;98933.59;4201292;28;19919;-70
2022/07/28 03:56:26;;;;;;;4.20;1.60;;;;;;;7.03;82.94;98922.94;4202122;28;20043;-70
2022/07/28 03:58:27;;;;;;;4.15;1.90;;;;;;;7.04;83.08;98927.28;4200923;28;20051;-70
2022/07/28 04:00:28;;;;;;;9.00;2.70;;;;;;;7.03;83.78;98931.19;4202538;28;20064;-69
2022/07/28 04:02:28;;;;;;;4.50;2.55;;;;;;;7.06;83.59;98928.88;4202270;28;20047;-70
2022/07/28 04:04:29;;;;;;;4.25;2.17;;;;;;;7.07;84.16;98931.28;4201548;28;20502;-69
2022/07/28 04:06:29;;;;;;;5.72;2.28;;;;;;;7.10;83.33;98936.09;4199257;28;20565;-69
2022/07/28 04:08:30;;;;;;;4.03;2.58;;;;;;;7.12;83.70;98933.00;4199811;28;20044;-70
2022/07/28 04:10:30;;;;;;;10.13;2.70;;;;;;;7.14;84.39;98931.50;4203047;28;20051;-69
2022/07/28 04:12:30;;;;;;;4.07;1.80;;;;;;;7.14;84.07;98936.22;4201390;28;20480;-69
2022/07/28 04:14:31;;;;;;;6.95;2.40;;;;;;;7.11;84.15;98932.19;4204465;28;20441;-70
2022/07/28 04:16:32;;;;;;;2.17;1.77;;;;;;;7.10;84.40;98924.28;4205456;28;20206;-69
2022/07/28 04:18:32;;;;;;;10.10;2.30;;;;;;;7.12;84.02;98936.56;4204396;28;20059;-70
2022/07/28 04:20:33;;;;;;;4.95;2.20;;;;;;;7.19;85.24;98927.72;4202907;28;20040;-69
2022/07/28 04:22:34;;;;;;;5.93;2.70;;;;;;;7.20;85.09;98929.31;4205388;28;20134;-69
2022/07/28 04:24:34;;;;;;;4.65;2.20;;;;;;;7.19;84.78;98925.75;4204946;28;20040;-70
2022/07/28 04:26:34;;;;;;;11.90;2.30;;;;;;;7.24;84.15;98927.50;4203006;28;20044;-69
2022/07/28 04:28:35;;;;;;;8.32;2.78;;;;;;;7.25;84.40;98931.84;4203487;28;20376;-70
2022/07/28 04:30:35;;;;;;;4.70;2.58;;;;;;;7.28;83.81;98928.41;4205859;28;20044;-69
2022/07/28 04:32:37;;;;;;;11.32;2.50;;;;;;;7.29;84.42;98927.28;4204466;28;20044;-70
2022/07/28 04:34:37;;;;;;;4.43;1.73;;;;;;;7.30;84.01;98929.69;4205116;28;20059;-69
2022/07/28 04:36:42;;;;;;;6.03;2.67;;;;;;;7.35;83.63;98930.56;4205455;28;20286;-69
2022/07/28 04:38:42;;;;;;;4.88;2.25;;;;;;;7.38;83.84;98938.97;4205033;28;20143;-70
2022/07/28 04:40:42;;;;;;;7.05;3.13;;;;;;;7.41;83.72;98937.47;4204503;28;20076;-69
2022/07/28 04:42:43;;;;;;;4.43;2.47;;;;;;;7.45;84.13;98932.88;4204325;28;20497;-69
2022/07/28 04:44:44;;;;;;;5.28;2.78;;;;;;;7.50;83.57;98935.38;4203695;28;20574;-69
2022/07/28 04:46:44;;;;;;;6.28;2.30;;;;;;;7.56;83.71;98934.00;4204912;28;20460;-69
2022/07/28 04:48:45;;;;;;;9.27;2.33;;;;;;;7.64;83.65;98938.56;4204133;28;20050;-70
2022/07/28 04:50:45;;;;;;;4.43;2.83;;;;;;;7.70;83.50;98942.69;4203125;28;20044;-70
2022/07/28 04:52:49;;;;;;;9.65;2.72;;;;;;;7.76;82.23;98935.78;4206253;28;20036;-69
2022/07/28 04:54:49;;;;;;;4.60;2.38;;;;;;;7.83;82.69;98935.19;4202009;28;20322;-69
2022/07/28 04:56:49;;;;;;;8.02;2.60;;;;;;;7.90;83.01;98938.16;4116267;27;20481;-70
2022/07/28 04:58:50;;;;;;;4.20;2.38;;;;;;;7.98;82.57;98939.97;4180301;28;20119;-70
2022/07/28 05:00:50;;;;;;;5.53;2.25;;;;;;;8.03;82.82;98934.22;4203224;28;20067;-70
2022/07/28 05:02:50;;;;;;;7.90;2.83;;;;;;;8.15;82.43;98941.63;4204851;28;20036;-69
2022/07/28 05:04:51;;;;;;;4.50;2.47;;;;;;;8.22;82.43;98930.81;4202685;28;20126;-70
2022/07/28 05:06:52;;;;;;;5.43;3.00;;;;;;;8.33;83.16;98937.41;4205388;28;20130;-70
2022/07/28 05:08:52;;;;;;;6.93;3.78;;;;;;;8.40;82.84;98931.34;4203868;28;20158;-70
2022/07/28 05:10:56;;;;;;;6.15;2.60;;;;;;;8.45;83.36;98933.84;4203446;28;20427;-70
2022/07/28 05:12:56;;;;;;;3.17;2.63;;;;;;;8.52;83.67;98930.47;4205752;28;20044;-70
2022/07/28 05:14:56;;;;;;;5.15;2.35;;;;;;;8.56;83.97;98940.44;4202561;28;20136;-70
2022/07/28 05:16:57;;;;;;;5.07;2.80;;;;;;;8.60;83.25;98935.00;4204879;28;20076;-70
2022/07/28 05:18:57;;;;;;;3.15;2.10;;;;;;;8.66;81.99;98930.84;4203850;28;20153;-70
2022/07/28 05:20:57;;;;;;;5.30;2.55;;;;;;;8.69;82.36;98930.16;4203269;28;20052;-70
2022/07/28 05:22:58;;;;;;;5.53;2.35;;;;;;;8.75;82.82;98933.44;4203630;28;20135;-70
2022/07/28 05:24:58;;;;;;;4.97;2.63;;;;;;;8.79;82.62;98940.66;4203409;28;20125;-70
2022/07/28 05:26:58;;;;;;;5.60;2.60;;;;;;;8.81;83.19;98941.09;4205088;28;20123;-70
2022/07/28 05:28:59;;;;;;;5.50;2.88;;;;;;;8.85;83.02;98936.44;4202111;28;20167;-70
2022/07/28 05:30:59;;;;;;;4.68;2.67;;;;;;;8.90;82.68;98941.72;4204555;28;20048;-70
2022/07/28 05:33:00;;;;;;;8.35;2.80;;;;;;;8.99;80.87;98945.09;4204381;28;20329;-70
2022/07/28 05:35:01;;;;;;;6.20;2.65;;;;;;;9.09;80.46;98942.97;4203526;28;20052;-70
2022/07/28 05:37:01;;;;;;;6.10;2.67;;;;;;;9.19;80.28;98943.25;4202838;28;20698;-70
2022/07/28 05:39:02;;;;;;;4.60;2.63;;;;;;;9.29;79.66;98939.94;4203395;28;20121;-70
2022/07/28 05:41:03;;;;;;;5.55;2.90;;;;;;;9.45;80.77;98944.63;4204320;28;20032;-70
2022/07/28 05:43:03;;;;;;;7.10;2.80;;;;;;;9.55;81.42;98952.34;4203345;28;20036;-70
2022/07/28 05:45:04;;;;;;;7.05;3.15;;;;;;;9.62;80.58;98948.97;4204345;28;20032;-70
2022/07/28 05:47:05;;;;;;;6.07;3.20;;;;;;;9.64;80.22;98952.16;4202377;28;20040;-70
2022/07/28 05:49:05;;;;;;;7.65;2.67;;;;;;;9.69;79.04;98944.41;4204227;28;20040;-70
2022/07/28 05:51:06;;;;;;;5.28;2.63;;;;;;;9.79;79.81;98937.50;4204473;28;20083;-70
2022/07/28 05:53:06;;;;;;;4.15;2.88;;;;;;;9.93;78.77;98945.28;4203523;28;20180;-70
2022/07/28 05:55:08;;;;;;;10.30;3.38;;;;;;;10.07;78.43;98935.34;4203446;28;20041;-70
2022/07/28 05:57:10;;;;;;;6.10;3.10;;;;;;;10.26;79.49;98955.88;4203141;28;20123;-70
2022/07/28 05:59:13;;;;;;;5.88;3.00;;;;;;;10.39;78.38;98947.06;4202863;28;20747;-70
2022/07/28 06:01:13;;;;;;;;;;;;;;;10.58;77.43;98949.00;4204009;28;20050;-70
2022/07/28 06:03:14;;;;;;;10.52;3.17;;;;;;;10.71;76.76;98952.41;4203784;28;19974;-70
2022/07/28 06:05:16;;;;;;;6.57;3.15;;;;;;;10.74;76.14;98951.69;4203748;28;20450;-70
2022/07/28 06:07:16;;;;;;;3.00;2.27;;;;;;;10.78;76.35;98949.00;4203641;28;20682;-70
2022/07/28 06:09:16;;;;;;;4.35;2.60;;;;;;;10.77;76.28;98952.94;4204038;28;20078;-70
2022/07/28 06:11:17;;;;;;;6.05;2.92;;;;;;;10.80;75.89;98954.94;4203668;28;20082;-70
2022/07/28 06:13:17;;;;;;;3.08;2.50;;;;;;;10.79;75.70;98958.88;4203222;28;20091;-70
2022/07/28 06:15:20;;;;;;;7.90;2.60;;;;;;;10.84;75.32;98955.78;4203028;28;20040;-70
2022/07/28 06:17:21;;;;;;;3.08;2.22;;;;;;;10.97;74.99;98946.94;4203650;28;20051;-70
2022/07/28 06:19:21;;;;;;;4.85;3.13;;;;;;;11.17;75.22;98946.88;4202548;28;20044;-70
2022/07/28 06:21:23;;;;;;;6.50;2.53;;;;;;;11.35;73.25;98953.53;4203331;28;20450;-70
2022/07/28 06:23:23;;;;;;;5.85;2.58;;;;;;;11.45;73.20;98952.88;4203186;28;20220;-70
2022/07/28 06:25:27;;;;;;;7.35;2.40;;;;;;;11.56;71.84;98944.72;4203225;28;20102;-70
2022/07/28 06:27:27;;;;;;;5.40;2.22;;;;;;;11.70;72.48;98950.50;4204237;28;20368;-70
2022/07/28 06:29:29;;;;;;;3.45;2.10;;;;;;;11.85;72.30;98953.50;4202980;28;20040;-70
2022/07/28 06:31:29;;;;;;;5.85;2.47;;;;;;;11.99;72.01;98953.69;4203459;28;20557;-70
2022/07/28 06:33:29;;;;;;;4.93;2.17;;;;;;;12.12;71.10;98945.94;4204241;28;20107;-70
2022/07/28 06:35:31;;;;;;;3.03;2.35;;;;;;;12.27;70.36;98948.50;4202470;28;20044;-70
2022/07/28 06:37:32;;;;;;;7.38;2.42;;;;;;;12.33;69.09;98946.22;4203005;28;20051;-70
2022/07/28 06:39:32;;;;;;;2.63;1.90;;;;;;;12.43;69.35;98942.75;4203326;28;20388;-70
2022/07/28 06:41:32;;;;;;;4.82;2.08;;;;;;;12.56;69.27;98949.63;4201577;28;20405;-70
2022/07/28 06:43:33;;;;;;;5.45;2.92;;;;;;;12.68;69.28;98947.78;4203461;28;20071;-70
2022/07/28 06:45:34;;;;;;;5.85;2.00;;;;;;;12.81;69.43;98949.09;4203349;28;20067;-70
2022/07/28 06:47:34;;;;;;;4.13;2.00;;;;;;;12.94;68.09;98947.63;4202696;28;20036;-70
2022/07/28 06:49:35;;;;;;;3.90;1.85;;;;;;;13.05;67.73;98937.41;4201702;28;20105;-70
2022/07/28 06:51:35;;;;;;;6.53;2.03;;;;;;;13.16;68.10;98938.31;4203320;28;20178;-70
2022/07/28 06:53:36;;;;;;;4.97;1.92;;;;;;;13.27;66.92;98945.97;4203651;28;20056;-70
2022/07/28 06:55:36;;;;;;;6.63;2.10;;;;;;;13.35;67.15;98940.09;4201917;28;20416;-70
2022/07/28 06:57:37;;;;;;;4.10;1.98;;;;;;;13.47;67.35;98936.19;4203583;28;20391;-70
2022/07/28 06:59:38;;;;;;;5.55;2.20;;;;;;;13.59;67.10;98938.66;4201682;28;20052;-70
2022/07/28 07:01:39;;;;;;;5.55;2.40;;;;;;;13.64;66.29;98940.28;4202461;28;20369;-70
2022/07/28 07:03:41;;;;;;;3.60;2.30;;;;;;;13.74;66.65;98934.00;4195363;28;20079;-70
2022/07/28 07:05:41;;;;;;;3.42;2.30;;;;;;;13.83;66.29;98934.47;4202627;28;20477;-70
2022/07/28 07:07:41;;;;;;;3.95;1.95;;;;;;;13.74;65.74;98925.66;4202367;28;20040;-70
2022/07/28 07:09:42;;;;;;;3.92;2.25;;;;;;;13.74;65.15;98923.69;4201265;28;20044;-70
2022/07/28 07:11:42;;;;;;;4.97;1.83;;;;;;;13.78;65.47;98930.03;4201977;28;20036;-70
2022/07/28 07:13:43;;;;;;;3.60;1.80;;;;;;;13.90;66.04;98933.66;4202689;28;20495;-70
2022/07/28 07:15:43;;;;;;;4.90;2.30;;;;;;;13.99;65.14;98940.50;4202915;28;20079;-70
2022/07/28 07:17:43;;;;;;;6.30;2.10;;;;;;;14.09;64.22;98927.81;4202878;28;20044;-70
2022/07/28 07:19:44;;;;;;;4.03;2.10;;;;;;;14.09;63.34;98933.41;4201642;28;20043;-70
2022/07/28 07:21:44;;;;;;;4.93;2.10;;;;;;;14.16;63.25;98938.19;4202794;28;20032;-70
2022/07/28 07:23:45;;;;;;;7.97;2.40;;;;;;;14.22;63.89;98936.63;4202906;28;20066;-70
2022/07/28 07:25:45;;;;;;;3.50;1.92;;;;;;;14.34;63.78;98934.28;4201692;28;20131;-71
2022/07/28 07:27:46;;;;;;;7.78;2.30;;;;;;;14.43;63.31;98933.13;4202365;28;20343;-71
2022/07/28 07:29:46;;;;;;;4.25;2.25;;;;;;;14.47;62.07;98937.53;4201177;28;20202;-71
2022/07/28 07:31:47;;;;;;;4.10;2.10;;;;;;;14.55;63.02;98925.22;4201108;28;20791;-71
2022/07/28 07:33:47;;;;;;;4.05;2.05;;;;;;;14.67;62.90;98934.41;4202899;28;20048;-71
2022/07/28 07:35:47;;;;;;;7.80;2.47;;;;;;;14.74;61.56;98929.66;4202583;28;20044;-71
2022/07/28 07:37:47;;;;;;;4.80;2.20;;;;;;;14.84;61.75;98933.66;4201135;28;20059;-70
2022/07/28 07:39:48;;;;;;;5.65;2.30;;;;;;;14.82;60.96;98924.91;4201589;28;20362;-71
2022/07/28 07:41:48;;;;;;;7.55;2.67;;;;;;;14.87;61.32;98924.50;4201751;28;20106;-70
2022/07/28 07:43:49;;;;;;;9.85;2.78;;;;;;;14.91;60.92;98927.31;4202169;28;20069;-70
2022/07/28 07:45:49;;;;;;;5.70;2.38;;;;;;;14.99;61.40;98924.13;4201882;28;20097;-70
2022/07/28 07:47:49;;;;;;;3.35;1.90;;;;;;;15.07;61.38;98920.16;4200476;28;20051;-70
2022/07/28 07:49:50;;;;;;;7.13;2.17;;;;;;;15.14;61.20;98917.38;4201963;28;20040;-70
2022/07/28 07:51:50;;;;;;;3.53;2.17;;;;;;;15.27;60.41;98916.97;4200913;28;20488;-70
2022/07/28 07:53:51;;;;;;;4.13;2.05;;;;;;;15.37;59.93;98910.56;4200765;28;20083;-70
2022/07/28 07:55:51;;;;;;;5.60;2.25;;;;;;;15.43;59.13;98909.78;4201812;28;20044;-70
2022/07/28 07:57:51;;;;;;;8.40;2.40;;;;;;;15.46;59.18;98902.59;4202556;28;20048;-70
2022/07/28 07:59:52;;;;;;;5.63;2.17;;;;;;;15.45;58.33;98896.22;4200010;28;20078;-70
2022/07/28 08:01:55;;;;;;;4.88;2.40;;;;;;;15.47;58.72;98901.41;4200138;28;20033;-70
2022/07/28 08:03:58;;;;;;;4.53;2.30;;;;;;;15.48;59.13;98905.81;4202543;28;20052;-70
2022/07/28 08:05:58;;;;;;;8.55;2.60;;;;;;;15.42;59.16;98902.63;4201349;28;20036;-70
2022/07/28 08:07:59;;;;;;;7.07;2.10;;;;;;;15.42;58.52;98899.03;4201702;28;20513;-71
2022/07/28 08:09:59;;;;;;;7.85;2.45;;;;;;;15.45;58.94;98898.22;4201084;28;20043;-71
2022/07/28 08:12:00;;;;;;;7.47;2.53;;;;;;;15.46;58.86;98900.59;4202361;28;20162;-71
2022/07/28 08:14:00;;;;;;;3.85;2.30;;;;;;;15.60;58.99;98894.22;4200919;28;20040;-71
2022/07/28 08:16:02;;;;;;;4.90;2.08;;;;;;;15.65;58.73;98893.84;4201716;28;20551;-71
2022/07/28 08:18:02;;;;;;;10.32;2.40;;;;;;;15.81;58.52;98896.19;4201853;28;20047;-71
2022/07/28 08:20:03;;;;;;;6.60;2.10;;;;;;;15.86;57.69;98889.41;4200851;28;20067;-71
2022/07/28 08:22:03;;;;;;;3.78;1.92;;;;;;;15.98;57.41;98897.34;4201934;28;20425;-71
2022/07/28 08:24:04;;;;;;;6.18;2.00;;;;;;;16.14;58.00;98896.88;4202118;28;20028;-71
2022/07/28 08:26:04;;;;;;;4.13;1.90;;;;;;;16.16;56.21;98898.06;4201240;28;20032;-71
2022/07/28 08:28:05;;;;;;;7.13;2.13;;;;;;;16.19;55.62;98888.06;4201558;28;20039;-71
2022/07/28 08:30:06;;;;;;;6.63;2.17;;;;;;;16.23;56.04;98894.44;4201459;28;20097;-71
2022/07/28 08:32:06;;;;;;;8.77;2.22;;;;;;;16.24;56.06;98893.25;4202156;28;20680;-71
2022/07/28 08:34:07;;;;;;;5.72;2.20;;;;;;;16.31;56.17;98886.84;4201299;28;20051;-71
2022/07/28 08:36:07;;;;;;;5.20;1.92;;;;;;;16.47;57.18;98873.19;4202412;28;20036;-71
2022/07/28 08:38:10;;;;;;;4.50;2.10;;;;;;;16.71;56.04;98891.00;4201158;28;20032;-71
2022/07/28 08:40:13;;;;;;;4.00;1.80;;;;;;;16.88;54.72;98883.69;4201650;28;20024;-71
2022/07/28 08:42:21;;;;;;;7.00;2.00;;;;;;;17.09;54.01;98889.94;4201132;28;20032;-71
2022/07/28 08:44:27;;;;;;;10.63;1.90;;;;;;;17.15;53.05;98886.72;4201699;28;20104;-71
2022/07/28 08:46:34;;;;;;;5.57;1.73;;;;;;;17.25;53.42;98889.41;4201491;28;20070;-71
2022/07/28 08:48:36;;;;;;;3.58;1.63;;;;;;;17.34;52.93;98880.53;4199499;28;20376;-71
2022/07/28 08:50:38;;;;;;;6.38;2.22;;;;;;;17.52;52.51;98880.34;4201833;28;20048;-71
2022/07/28 08:52:39;;;;;;;3.73;1.50;;;;;;;17.59;52.06;98878.28;4201534;28;20425;-71
2022/07/28 08:54:42;;;;;;;3.78;1.70;;;;;;;17.49;52.03;98884.78;4200979;28;20086;-71
2022/07/28 08:56:44;;;;;;;5.25;1.90;;;;;;;17.56;51.63;98872.72;4199291;28;20366;-71
2022/07/28 08:58:44;;;;;;;6.28;2.10;;;;;;;17.70;50.80;98886.59;4201447;28;20044;-71
2022/07/28 09:00:45;;;;;;;6.65;1.73;;;;;;;17.83;50.59;98878.47;4202394;28;20044;-71
2022/07/28 09:02:46;;;;;;;4.95;2.33;;;;;;;17.86;50.08;98884.00;4204085;28;20048;-71
2022/07/28 09:04:47;;;;;;;4.40;1.58;;;;;;;17.99;50.54;98872.28;4204063;28;20356;-71
2022/07/28 09:06:47;;;;;;;6.18;2.25;;;;;;;18.07;50.87;98876.59;4204983;28;20151;-71
2022/07/28 09:08:48;;;;;;;2.58;1.60;;;;;;;18.20;50.10;98874.81;4204389;28;20109;-71
2022/07/28 09:10:49;;;;;;;4.32;1.60;;;;;;;18.40;50.02;98869.34;4204191;28;20488;-71
2022/07/28 09:12:50;;;;;;;6.45;1.80;;;;;;;18.57;48.48;98865.50;4205048;28;20051;-71
2022/07/28 09:14:50;;;;;;;4.57;1.60;;;;;;;18.63;47.81;98863.03;4203793;28;20693;-71
2022/07/28 09:16:51;;;;;;;7.60;2.28;;;;;;;18.70;48.62;98857.31;4204538;28;20047;-71
2022/07/28 09:18:52;;;;;;;4.07;1.75;;;;;;;18.80;48.00;98856.38;4203969;28;20043;-71
2022/07/28 09:20:52;;;;;;;2.90;1.52;;;;;;;18.76;48.07;98864.84;4205304;28;20024;-71
2022/07/28 09:23:04;;;;;;;4.30;2.03;;;;;;;18.81;47.82;98860.78;4203736;28;20479;-72
2022/07/28 09:25:17;;;;;;;7.07;1.90;;;;;;;18.79;47.61;98857.63;4203804;28;20036;-71
2022/07/28 09:27:17;;;;;;;3.80;2.03;;;;;;;18.89;48.14;98855.84;4203321;28;20050;-71
2022/07/28 09:29:23;;;;;;;3.40;1.42;;;;;;;18.96;47.37;98859.34;4204663;28;20117;-71
2022/07/28 09:31:26;;;;;;;7.43;1.80;;;;;;;19.01;47.21;98858.84;4203470;28;20048;-71
2022/07/28 09:33:28;;;;;;;3.83;2.08;;;;;;;19.04;47.28;98857.22;4203983;28;20040;-71
2022/07/28 09:35:28;;;;;;;3.55;1.60;;;;;;;18.98;47.85;98861.72;4202825;28;20052;-71
2022/07/28 09:37:30;;;;;;;3.67;1.80;;;;;;;19.01;46.96;98858.84;4204780;28;20628;-71
2022/07/28 09:39:35;;;;;;;3.45;1.50;;;;;;;19.05;47.31;98845.56;4202640;28;20094;-71
2022/07/28 09:41:51;;;;;;;8.23;2.17;;;;;;;19.21;46.47;98858.91;4204263;28;20089;-71